Time;durP1;ratioP1;P1;durP2;ratioP2;P2;SDS_P1;SDS_P2;PMS_P1;PMS_P2;Temp;Humidity;BMP_temperature;BMP_pressure;BME280_temperature;BME280_humidity;BME280_pressure;Samples;Min_cycle;Max_cycle;Signal;HPM_P1;HPM_P2
2022/04/09 00:01:09;;;;;;;;;;;;;;;;;;4186569;28;921;-65
2022/04/09 00:03:30;;;;;;;;;;;;;;;;;;4189056;28;991;-65
2022/04/09 00:05:50;;;;;;;;;;;;;;;;;;4189025;28;1073;-65
2022/04/09 00:08:11;;;;;;;;;;;;;;;;;;4189149;28;1002;-65
2022/04/09 00:10:32;;;;;;;;;;;;;;;;;;4188878;28;1150;-65
2022/04/09 00:12:53;;;;;;;;;;;;;;;;;;4188168;28;886;-64
2022/04/09 00:15:14;;;;;;;;;;;;;;;;;;4189021;28;852;-65
2022/04/09 00:17:35;;;;;;;;;;;;;;;;;;4188780;28;1020;-64
2022/04/09 00:19:55;;;;;;;;;;;;;;;;;;4188141;28;1499;-64
2022/04/09 00:22:16;;;;;;;;;;;;;;;;;;4188505;28;1938;-64
2022/04/09 00:24:37;;;;;;;;;;;;;;;;;;4188117;28;1678;-65
2022/04/09 00:26:58;;;;;;;;;;;;;;;;;;4186102;28;1975;-65
2022/04/09 00:29:18;;;;;;;;;;;;;;;;;;4187193;28;1725;-64
2022/04/09 00:31:39;;;;;;;;;;;;;;;;;;4187952;28;2589;-64
2022/04/09 00:34:00;;;;;;;;;;;;;;;;;;4186146;28;2083;-63
2022/04/09 00:36:20;;;;;;;;;;;;;;;;;;4187220;28;1843;-65
2022/04/09 00:38:41;;;;;;;;;;;;;;;;;;4187754;28;1975;-65
2022/04/09 00:41:02;;;;;;;;;;;;;;;;;;4187915;28;1352;-65
2022/04/09 00:43:23;;;;;;;;;;;;;;;;;;4185555;28;1409;-64
2022/04/09 00:45:43;;;;;;;;;;;;;;;;;;4187418;28;1533;-65
2022/04/09 00:48:05;;;;;;;;;;;;;;;;;;4187157;28;1901;-67
2022/04/09 00:50:25;;;;;;;;;;;;;;;;;;4185315;28;962;-65
2022/04/09 00:52:46;;;;;;;;;;;;;;;;;;4186806;28;1048;-65
2022/04/09 00:55:07;;;;;;;;;;;;;;;;;;4187434;28;875;-65
2022/04/09 00:57:27;;;;;;;;;;;;;;;;;;4188326;28;809;-65
2022/04/09 00:59:48;;;;;;;;;;;;;;;;;;4187295;28;798;-65
2022/04/09 01:02:33;;;;;;;;;;;;;;;;;;4186723;28;2273;-66
2022/04/09 01:04:54;;;;;;;;;;;;;;;;;;4187753;28;1090;-65
2022/04/09 01:07:15;;;;;;;;;;;;;;;;;;4187595;28;1910;-65
2022/04/09 01:09:35;;;;;;;;;;;;;;;;;;4186847;28;1037;-65
2022/04/09 01:11:57;;;;;;;;;;;;;;;;;;4187015;28;1170;-65
2022/04/09 01:14:17;;;;;;;;;;;;;;;;;;4185213;28;1161;-65
2022/04/09 01:16:38;;;;;;;;;;;;;;;;;;4186653;28;879;-66
2022/04/09 01:18:59;;;;;;;;;;;;;;;;;;4186341;28;1223;-66
2022/04/09 01:21:19;;;;;;;;;;;;;;;;;;4187635;28;997;-65
2022/04/09 01:23:40;;;;;;;;;;;;;;;;;;4186526;28;964;-66
2022/04/09 01:26:01;;;;;;;;;;;;;;;;;;4186729;28;891;-65
2022/04/09 01:28:22;;;;;;;;;;;;;;;;;;4186196;28;1988;-64
2022/04/09 01:30:43;;;;;;;;;;;;;;;;;;4187611;28;998;-65
2022/04/09 01:33:04;;;;;;;;;;;;;;;;;;4187589;28;1304;-64
2022/04/09 01:35:24;;;;;;;;;;;;;;;;;;4186628;28;1312;-65
2022/04/09 01:37:46;;;;;;;;;;;;;;;;;;4186095;28;1120;-65
2022/04/09 01:40:06;;;;;;;;;;;;;;;;;;4186363;28;1214;-64
2022/04/09 01:42:27;;;;;;;;;;;;;;;;;;4187383;28;1215;-64
2022/04/09 01:44:50;;;;;;;;;;;;;;;;;;4185857;28;982;-65
2022/04/09 01:47:11;;;;;;;;;;;;;;;;;;4187922;28;1914;-65
2022/04/09 01:49:31;;;;;;;;;;;;;;;;;;4187394;28;1015;-64
2022/04/09 01:51:52;;;;;;;;;;;;;;;;;;4186460;28;932;-65
2022/04/09 01:54:13;;;;;;;;;;;;;;;;;;4187669;28;876;-65
2022/04/09 01:56:33;;;;;;;;;;;;;;;;;;4187628;28;866;-64
2022/04/09 01:58:55;;;;;;;;;;;;;;;;;;4186469;28;984;-64
2022/04/09 02:01:18;;;;;;;;;;;;;;;;;;4172180;28;945;-65
2022/04/09 02:03:38;;;;;;;;;;;;;;;;;;4186460;28;1065;-64
2022/04/09 02:05:59;;;;;;;;;;;;;;;;;;4187173;28;1021;-64
2022/04/09 02:08:20;;;;;;;;;;;;;;;;;;4185951;28;2028;-65
2022/04/09 02:10:41;;;;;;;;;;;;;;;;;;4186216;28;1154;-64
2022/04/09 02:13:04;;;;;;;;;;;;;;;;;;4185821;28;1046;-64
2022/04/09 02:15:25;;;;;;;;;;;;;;;;;;4185942;28;1232;-64
2022/04/09 02:17:45;;;;;;;;;;;;;;;;;;4187017;28;1101;-64
2022/04/09 02:20:06;;;;;;;;;;;;;;;;;;4185355;28;1011;-65
2022/04/09 02:22:26;;;;;;;;;;;;;;;;;;4186640;28;1173;-65
2022/04/09 02:24:47;;;;;;;;;;;;;;;;;;4186920;28;955;-64
2022/04/09 02:27:08;;;;;;;;;;;;;;;;;;4185998;28;1922;-64
2022/04/09 02:29:28;;;;;;;;;;;;;;;;;;4186825;28;922;-65
2022/04/09 02:31:49;;;;;;;;;;;;;;;;;;4186304;28;1057;-64
2022/04/09 02:34:09;;;;;;;;;;;;;;;;;;4185229;28;1324;-64
2022/04/09 02:36:32;;;;;;;;;;;;;;;;;;4185950;28;829;-64
2022/04/09 02:38:52;;;;;;;;;;;;;;;;;;4186118;28;953;-64
2022/04/09 02:41:12;;;;;;;;;;;;;;;;;;4185195;28;1090;-64
2022/04/09 02:43:34;;;;;;;;;;;;;;;;;;4185380;28;1040;-64
2022/04/09 02:45:55;;;;;;;;;;;;;;;;;;4185154;28;1043;-63
2022/04/09 02:48:16;;;;;;;;;;;;;;;;;;4185860;28;1979;-64
2022/04/09 02:50:38;;;;;;;;;;;;;;;;;;4185540;28;943;-64
2022/04/09 02:52:58;;;;;;;;;;;;;;;;;;4185528;28;1193;-63
2022/04/09 02:55:20;;;;;;;;;;;;;;;;;;4186255;28;879;-64
2022/04/09 02:57:42;;;;;;;;;;;;;;;;;;4185310;28;849;-64
2022/04/09 03:00:06;;;;;;;;;;;;;;;;;;4185339;28;1164;-63
2022/04/09 03:02:27;;;;;;;;;;;;;;;;;;4186850;28;897;-64
2022/04/09 03:04:48;;;;;;;;;;;;;;;;;;4185268;28;1036;-64
2022/04/09 03:07:09;;;;;;;;;;;;;;;;;;4186840;28;776;-64
2022/04/09 03:09:30;;;;;;;;;;;;;;;;;;4186451;28;1168;-64
2022/04/09 03:11:51;;;;;;;;;;;;;;;;;;4186320;28;1017;-64
2022/04/09 03:14:11;;;;;;;;;;;;;;;;;;4186606;28;913;-64
2022/04/09 03:16:32;;;;;;;;;;;;;;;;;;4186757;28;1176;-64
2022/04/09 03:18:54;;;;;;;;;;;;;;;;;;4185165;28;1116;-64
2022/04/09 03:21:14;;;;;;;;;;;;;;;;;;4186092;28;848;-64
2022/04/09 03:23:35;;;;;;;;;;;;;;;;;;4186633;28;927;-64
2022/04/09 03:25:55;;;;;;;;;;;;;;;;;;4185392;28;981;-64
2022/04/09 03:28:21;;;;;;;;;;;;;;;;;;4185979;28;1909;-65
2022/04/09 03:30:42;;;;;;;;;;;;;;;;;;4171563;28;912;-64
2022/04/09 03:33:03;;;;;;;;;;;;;;;;;;4185129;28;1172;-64
2022/04/09 03:35:27;;;;;;;;;;;;;;;;;;4185477;28;960;-64
2022/04/09 03:37:49;;;;;;;;;;;;;;;;;;4187476;28;971;-64
2022/04/09 03:40:15;;;;;;;;;;;;;;;;;;4188181;28;1172;-64
2022/04/09 03:42:35;;;;;;;;;;;;;;;;;;4187871;28;957;-65
2022/04/09 03:44:56;;;;;;;;;;;;;;;;;;4187641;28;957;-64
2022/04/09 03:47:17;;;;;;;;;;;;;;;;;;4188107;28;923;-64
2022/04/09 03:49:38;;;;;;;;;;;;;;;;;;4187770;28;1126;-65
2022/04/09 03:51:58;;;;;;;;;;;;;;;;;;4187977;28;1119;-65
2022/04/09 03:54:20;;;;;;;;;;;;;;;;;;4174063;28;1092;-64
2022/04/09 03:56:43;;;;;;;;;;;;;;;;;;4188302;28;1031;-65
2022/04/09 03:59:05;;;;;;;;;;;;;;;;;;4187464;28;1070;-64
2022/04/09 04:01:27;;;;;;;;;;;;;;;;;;4187782;28;953;-64
2022/04/09 04:03:49;;;;;;;;;;;;;;;;;;4188038;28;807;-64
2022/04/09 04:06:10;;;;;;;;;;;;;;;;;;4187369;28;937;-64
2022/04/09 04:08:31;;;;;;;;;;;;;;;;;;4187420;28;1909;-65
2022/04/09 04:10:51;;;;;;;;;;;;;;;;;;4173276;28;1188;-65
2022/04/09 04:13:16;;;;;;;;;;;;;;;;;;4187353;28;959;-64
2022/04/09 04:15:37;;;;;;;;;;;;;;;;;;4187160;28;1096;-64
2022/04/09 04:17:58;;;;;;;;;;;;;;;;;;4188156;28;1113;-64
2022/04/09 04:20:21;;;;;;;;;;;;;;;;;;4187714;28;967;-64
2022/04/09 04:22:45;;;;;;;;;;;;;;;;;;4187826;28;913;-64
2022/04/09 04:25:05;;;;;;;;;;;;;;;;;;4187665;28;977;-64
2022/04/09 04:27:27;;;;;;;;;;;;;;;;;;4187461;28;1182;-64
2022/04/09 04:29:48;;;;;;;;;;;;;;;;;;4189006;28;997;-65
2022/04/09 04:32:09;;;;;;;;;;;;;;;;;;4187225;28;1026;-64
2022/04/09 04:34:30;;;;;;;;;;;;;;;;;;4187476;28;1080;-64
2022/04/09 04:36:51;;;;;;;;;;;;;;;;;;4187340;28;1012;-64
2022/04/09 04:39:12;;;;;;;;;;;;;;;;;;4187243;28;930;-65
2022/04/09 04:41:35;;;;;;;;;;;;;;;;;;4187002;28;1458;-64
2022/04/09 04:43:56;;;;;;;;;;;;;;;;;;4173343;28;1052;-64
2022/04/09 04:46:22;;;;;;;;;;;;;;;;;;4187275;28;1094;-64
2022/04/09 04:48:43;;;;;;;;;;;;;;;;;;4185931;28;1909;-65
2022/04/09 04:51:04;;;;;;;;;;;;;;;;;;4187158;28;980;-64
2022/04/09 04:53:27;;;;;;;;;;;;;;;;;;4187127;28;1030;-64
2022/04/09 04:55:51;;;;;;;;;;;;;;;;;;4187149;28;1216;-64
2022/04/09 04:58:11;;;;;;;;;;;;;;;;;;4187011;28;1016;-64
2022/04/09 05:00:38;;;;;;;;;;;;;;;;;;4186044;28;1722;-64
2022/04/09 05:03:02;;;;;;;;;;;;;;;;;;4172261;28;956;-64
2022/04/09 05:05:25;;;;;;;;;;;;;;;;;;4186297;28;1305;-64
2022/04/09 05:07:47;;;;;;;;;;;;;;;;;;4183760;28;1794;-64
2022/04/09 05:10:07;;;;;;;;;;;;;;;;;;4186392;28;1205;-64
2022/04/09 05:12:28;;;;;;;;;;;;;;;;;;4187051;28;1005;-64
2022/04/09 05:14:48;;;;;;;;;;;;;;;;;;4186942;28;1145;-65
2022/04/09 05:17:12;;;;;;;;;;;;;;;;;;4187215;28;955;-64
2022/04/09 05:19:33;;;;;;;;;;;;;;;;;;4187274;28;926;-64
2022/04/09 05:21:59;;;;;;;;;;;;;;;;;;4187445;28;943;-64
2022/04/09 05:24:23;;;;;;;;;;;;;;;;;;4187241;28;991;-64
2022/04/09 05:26:44;;;;;;;;;;;;;;;;;;4187974;28;989;-64
2022/04/09 05:29:05;;;;;;;;;;;;;;;;;;4186663;28;1902;-64
2022/04/09 05:31:27;;;;;;;;;;;;;;;;;;4187082;28;970;-64
2022/04/09 05:33:48;;;;;;;;;;;;;;;;;;4187018;28;1079;-65
2022/04/09 05:36:09;;;;;;;;;;;;;;;;;;4187911;28;1097;-65
2022/04/09 05:38:30;;;;;;;;;;;;;;;;;;4186673;28;977;-64
2022/04/09 05:40:52;;;;;;;;;;;;;;;;;;4186832;28;1001;-65
2022/04/09 05:43:14;;;;;;;;;;;;;;;;;;4186961;28;1146;-65
2022/04/09 05:45:37;;;;;;;;;;;;;;;;;;4186147;28;1353;-64
2022/04/09 05:47:58;;;;;;;;;;;;;;;;;;4186876;28;2100;-64
2022/04/09 05:50:28;;;;;;;;;;;;;;;;;;4184613;28;1544;-64
2022/04/09 05:52:50;;;;;;;;;;;;;;;;;;4184908;28;1381;-64
2022/04/09 05:55:12;;;;;;;;;;;;;;;;;;4186283;28;1246;-65
2022/04/09 05:57:34;;;;;;;;;;;;;;;;;;4185894;28;1607;-64
2022/04/09 05:59:57;;;;;;;;;;;;;;;;;;4185082;28;2116;-64
2022/04/09 06:02:18;;;;;;;;;;;;;;;;;;4188866;28;1398;-64
2022/04/09 06:04:39;;;;;;;;;;;;;;;;;;4182728;28;1591;-64
2022/04/09 06:07:00;;;;;;;;;;;;;;;;;;4183263;28;1353;-64
2022/04/09 06:09:22;;;;;;;;;;;;;;;;;;4185870;28;1909;-65
2022/04/09 06:11:47;;;;;;;;;;;;;;;;;;4185632;28;1022;-65
2022/04/09 06:14:13;;;;;;;;;;;;;;;;;;4186026;28;961;-65
2022/04/09 06:16:35;;;;;;;;;;;;;;;;;;4200393;28;976;-65
2022/04/09 06:18:58;;;;;;;;;;;;;;;;;;4186081;28;966;-65
2022/04/09 06:21:18;;;;;;;;;;;;;;;;;;4185618;28;920;-65
2022/04/09 06:23:40;;;;;;;;;;;;;;;;;;4199291;28;1239;-65
2022/04/09 06:26:00;;;;;;;;;;;;;;;;;;4184995;28;1176;-65
2022/04/09 06:28:25;;;;;;;;;;;;;;;;;;4199614;28;1010;-65
2022/04/09 06:30:46;;;;;;;;;;;;;;;;;;4184825;28;929;-65
2022/04/09 06:33:14;;;;;;;;;;;;;;;;;;4168439;28;1289;-65
2022/04/09 06:35:35;;;;;;;;;;;;;;;;;;4183110;28;994;-65
2022/04/09 06:38:00;;;;;;;;;;;;;;;;;;4183618;28;1054;-65
2022/04/09 06:40:21;;;;;;;;;;;;;;;;;;4183977;28;1145;-65
2022/04/09 06:42:41;;;;;;;;;;;;;;;;;;4183694;28;835;-65
2022/04/09 06:45:21;;;;;;;;;;;;;;;;;;4170357;28;1028;-65
2022/04/09 06:48:14;;;;;;;;;;;;;;;;;;4177933;28;1082;-65
2022/04/09 06:50:43;;;;;;;;;;;;;;;;;;4182842;28;1054;-65
2022/04/09 06:53:04;;;;;;;;;;;;;;;;;;4174026;28;2068;-65
2022/04/09 06:55:26;;;;;;;;;;;;;;;;;;4182324;28;952;-66
2022/04/09 06:57:47;;;;;;;;;;;;;;;;;;4169111;28;982;-65
2022/04/09 07:00:12;;;;;;;;;;;;;;;;;;4169899;28;2366;-66
2022/04/09 07:02:32;;;;;;;;;;;;;;;;;;4169905;28;1728;-65
2022/04/09 07:04:54;;;;;;;;;;;;;;;;;;4168938;28;1005;-65
2022/04/09 07:07:15;;;;;;;;;;;;;;;;;;4184328;28;1224;-65
2022/04/09 07:09:35;;;;;;;;;;;;;;;;;;4186460;28;1914;-66
2022/04/09 07:11:56;;;;;;;;;;;;;;;;;;4185925;28;888;-65
2022/04/09 07:14:17;;;;;;;;;;;;;;;;;;4186375;28;1140;-65
2022/04/09 07:16:39;;;;;;;;;;;;;;;;;;4186376;28;1052;-65
2022/04/09 07:19:01;;;;;;;;;;;;;;;;;;4186048;28;1148;-65
2022/04/09 07:21:21;;;;;;;;;;;;;;;;;;4185218;28;1268;-65
2022/04/09 07:23:42;;;;;;;;;;;;;;;;;;4186211;28;1313;-65
2022/04/09 07:26:03;;;;;;;;;;;;;;;;;;4185859;28;1905;-64
2022/04/09 07:28:23;;;;;;;;;;;;;;;;;;4183161;28;1917;-65
2022/04/09 07:30:44;;;;;;;;;;;;;;;;;;4186087;28;1982;-65
2022/04/09 07:33:05;;;;;;;;;;;;;;;;;;4186012;28;1255;-65
2022/04/09 07:35:25;;;;;;;;;;;;;;;;;;4186459;28;961;-66
2022/04/09 07:37:46;;;;;;;;;;;;;;;;;;4186334;28;866;-65
2022/04/09 07:40:07;;;;;;;;;;;;;;;;;;4186240;28;1059;-65
2022/04/09 07:42:27;;;;;;;;;;;;;;;;;;4186476;28;1023;-65
2022/04/09 07:44:48;;;;;;;;;;;;;;;;;;4186122;28;1056;-65
2022/04/09 07:47:09;;;;;;;;;;;;;;;;;;4185203;28;1446;-65
2022/04/09 07:49:29;;;;;;;;;;;;;;;;;;4186216;28;1926;-65
2022/04/09 07:51:50;;;;;;;;;;;;;;;;;;4186639;28;880;-65
2022/04/09 07:54:11;;;;;;;;;;;;;;;;;;4185995;28;1504;-65
2022/04/09 07:56:31;;;;;;;;;;;;;;;;;;4186083;28;924;-65
2022/04/09 07:58:52;;;;;;;;;;;;;;;;;;4186361;28;1021;-66
2022/04/09 08:01:13;;;;;;;;;;;;;;;;;;4185508;28;1458;-66
2022/04/09 08:03:33;;;;;;;;;;;;;;;;;;4185774;28;1172;-65
2022/04/09 08:05:54;;;;;;;;;;;;;;;;;;4185491;28;929;-65
2022/04/09 08:08:14;;;;;;;;;;;;;;;;;;4185116;28;929;-65
2022/04/09 08:10:35;;;;;;;;;;;;;;;;;;4185826;28;1984;-66
2022/04/09 08:12:56;;;;;;;;;;;;;;;;;;4186109;28;997;-66
2022/04/09 08:15:18;;;;;;;;;;;;;;;;;;4185302;28;1317;-65
2022/04/09 08:17:39;;;;;;;;;;;;;;;;;;4184372;28;1243;-67
2022/04/09 08:20:00;;;;;;;;;;;;;;;;;;4184111;28;1768;-66
2022/04/09 08:22:21;;;;;;;;;;;;;;;;;;4185634;28;1012;-65
2022/04/09 08:24:42;;;;;;;;;;;;;;;;;;4188597;28;927;-66
2022/04/09 08:27:02;;;;;;;;;;;;;;;;;;4188414;28;1116;-65
2022/04/09 08:29:24;;;;;;;;;;;;;;;;;;4188218;28;1902;-65
2022/04/09 08:31:47;;;;;;;;;;;;;;;;;;4188496;28;944;-65
2022/04/09 08:34:08;;;;;;;;;;;;;;;;;;4188613;28;1073;-61
2022/04/09 08:36:28;;;;;;;;;;;;;;;;;;4188640;28;1126;-60
2022/04/09 08:38:49;;;;;;;;;;;;;;;;;;4188706;28;1012;-61
2022/04/09 08:41:10;;;;;;;;;;;;;;;;;;4188686;28;974;-61
2022/04/09 08:43:31;;;;;;;;;;;;;;;;;;4188976;28;897;-61
2022/04/09 08:45:51;;;;;;;;;;;;;;;;;;4188410;28;1085;-60
2022/04/09 08:48:12;;;;;;;;;;;;;;;;;;4188414;28;946;-60
2022/04/09 08:50:35;;;;;;;;;;;;;;;;;;4187971;28;1975;-61
2022/04/09 08:52:55;;;;;;;;;;;;;;;;;;4188465;28;938;-61
2022/04/09 08:55:16;;;;;;;;;;;;;;;;;;4187936;28;1489;-60
2022/04/09 08:57:36;;;;;;;;;;;;;;;;;;4187981;28;1974;-60
2022/04/09 08:59:57;;;;;;;;;;;;;;;;;;4187979;28;1085;-60
2022/04/09 09:02:18;;;;;;;;;;;;;;;;;;4188076;28;1100;-60
2022/04/09 09:04:39;;;;;;;;;;;;;;;;;;4188109;28;1313;-60
2022/04/09 09:07:01;;;;;;;;;;;;;;;;;;4188236;28;957;-60
2022/04/09 09:09:21;;;;;;;;;;;;;;;;;;4188149;28;1221;-60
2022/04/09 09:11:42;;;;;;;;;;;;;;;;;;4188083;28;1076;-61
2022/04/09 09:14:03;;;;;;;;;;;;;;;;;;4188052;28;1210;-60
2022/04/09 09:16:25;;;;;;;;;;;;;;;;;;4188390;28;1334;-60
2022/04/09 09:18:46;;;;;;;;;;;;;;;;;;4171608;28;1687;-60
2022/04/09 09:21:06;;;;;;;;;;;;;;;;;;4169823;28;1110;-60
2022/04/09 09:23:27;;;;;;;;;;;;;;;;;;4175789;28;2130;-60
2022/04/09 09:25:48;;;;;;;;;;;;;;;;;;4186408;28;936;-61
2022/04/09 09:28:08;;;;;;;;;;;;;;;;;;4186374;28;973;-63
2022/04/09 09:30:29;;;;;;;;;;;;;;;;;;4185789;28;1905;-60
2022/04/09 09:32:50;;;;;;;;;;;;;;;;;;4180944;28;1719;-60
2022/04/09 09:35:12;;;;;;;;;;;;;;;;;;4167532;28;814;-60
2022/04/09 09:37:32;;;;;;;;;;;;;;;;;;4167959;28;1160;-60
2022/04/09 09:39:53;;;;;;;;;;;;;;;;;;4181175;28;911;-61
2022/04/09 09:42:13;;;;;;;;;;;;;;;;;;4168066;28;1468;-61
2022/04/09 09:44:34;;;;;;;;;;;;;;;;;;4171052;28;1401;-60
2022/04/09 09:46:56;;;;;;;;;;;;;;;;;;4185526;28;871;-60
2022/04/09 09:49:16;;;;;;;;;;;;;;;;;;4185489;28;947;-61
2022/04/09 09:51:37;;;;;;;;;;;;;;;;;;4184548;28;2008;-60
2022/04/09 09:53:58;;;;;;;;;;;;;;;;;;4184921;28;937;-61
2022/04/09 09:56:18;;;;;;;;;;;;;;;;;;4168264;28;902;-61
2022/04/09 09:58:39;;;;;;;;;;;;;;;;;;4167730;28;930;-60
2022/04/09 10:01:00;;;;;;;;;;;;;;;;;;4180900;28;1114;-61
2022/04/09 10:03:20;;;;;;;;;;;;;;;;;;4185322;28;942;-60
2022/04/09 10:05:41;;;;;;;;;;;;;;;;;;4184360;28;972;-61
2022/04/09 10:08:02;;;;;;;;;;;;;;;;;;4185143;28;1236;-61
2022/04/09 10:10:26;;;;;;;;;;;;;;;;;;4185232;28;1975;-61
2022/04/09 10:12:47;;;;;;;;;;;;;;;;;;4185156;28;1037;-60
2022/04/09 10:15:08;;;;;;;;;;;;;;;;;;4185124;28;1123;-60
2022/04/09 10:17:29;;;;;;;;;;;;;;;;;;4184917;28;809;-61
2022/04/09 10:19:50;;;;;;;;;;;;;;;;;;4185146;28;1075;-60
2022/04/09 10:22:11;;;;;;;;;;;;;;;;;;4185074;28;870;-60
2022/04/09 10:24:31;;;;;;;;;;;;;;;;;;4184274;28;941;-60
2022/04/09 10:26:53;;;;;;;;;;;;;;;;;;4183685;28;1393;-60
2022/04/09 10:29:13;;;;;;;;;;;;;;;;;;4184348;28;1343;-60
2022/04/09 10:31:35;;;;;;;;;;;;;;;;;;4184444;28;1926;-60
2022/04/09 10:33:55;;;;;;;;;;;;;;;;;;4184822;28;1607;-60
2022/04/09 10:36:17;;;;;;;;;;;;;;;;;;4184828;28;955;-61
2022/04/09 10:38:40;;;;;;;;;;;;;;;;;;4185367;28;1018;-60
2022/04/09 10:41:01;;;;;;;;;;;;;;;;;;4185249;28;969;-60
2022/04/09 10:43:21;;;;;;;;;;;;;;;;;;4185286;28;943;-60
2022/04/09 10:45:42;;;;;;;;;;;;;;;;;;4184212;28;1127;-61
2022/04/09 10:48:03;;;;;;;;;;;;;;;;;;4184557;28;1241;-60
2022/04/09 10:50:24;;;;;;;;;;;;;;;;;;4184389;28;1979;-60
2022/04/09 10:52:44;;;;;;;;;;;;;;;;;;4184649;28;1003;-60
2022/04/09 10:55:05;;;;;;;;;;;;;;;;;;4185601;28;1324;-60
2022/04/09 10:57:26;;;;;;;;;;;;;;;;;;4186541;28;985;-60
2022/04/09 10:59:47;;;;;;;;;;;;;;;;;;4186284;28;1142;-60
2022/04/09 11:02:09;;;;;;;;;;;;;;;;;;4186816;28;1015;-60
2022/04/09 11:04:30;;;;;;;;;;;;;;;;;;4187039;28;1051;-63
2022/04/09 11:06:50;;;;;;;;;;;;;;;;;;4186407;28;1162;-61
2022/04/09 11:09:11;;;;;;;;;;;;;;;;;;4184826;28;1968;-60
2022/04/09 11:11:32;;;;;;;;;;;;;;;;;;4175521;28;1981;-61
2022/04/09 11:13:52;;;;;;;;;;;;;;;;;;4184678;28;1024;-63
2022/04/09 11:16:13;;;;;;;;;;;;;;;;;;4186380;28;1236;-62
2022/04/09 11:18:34;;;;;;;;;;;;;;;;;;4186580;28;961;-63
2022/04/09 11:20:54;;;;;;;;;;;;;;;;;;4186676;28;829;-63
2022/04/09 11:23:15;;;;;;;;;;;;;;;;;;4186355;28;973;-62
2022/04/09 11:25:36;;;;;;;;;;;;;;;;;;4186280;28;1231;-63
2022/04/09 11:27:56;;;;;;;;;;;;;;;;;;4173048;28;1678;-63
2022/04/09 11:30:17;;;;;;;;;;;;;;;;;;4177249;28;1315;-62
2022/04/09 11:32:38;;;;;;;;;;;;;;;;;;4186469;28;1037;-62
2022/04/09 11:34:58;;;;;;;;;;;;;;;;;;4185457;28;1198;-62
2022/04/09 11:37:18;;;;;;;;;;;;;;;;;;4186448;28;831;-62
2022/04/09 11:39:40;;;;;;;;;;;;;;;;;;4186237;28;1164;-63
2022/04/09 11:42:00;;;;;;;;;;;;;;;;;;4183277;28;1712;-62
2022/04/09 11:44:21;;;;;;;;;;;;;;;;;;4175031;28;2347;-62
2022/04/09 11:46:42;;;;;;;;;;;;;;;;;;4186592;28;934;-62
2022/04/09 11:49:02;;;;;;;;;;;;;;;;;;4176691;28;1605;-62
2022/04/09 11:51:23;;;;;;;;;;;;;;;;;;4169788;28;1984;-63
2022/04/09 11:53:43;;;;;;;;;;;;;;;;;;4171822;28;3003;-63
2022/04/09 11:56:05;;;;;;;;;;;;;;;;;;4185116;28;1167;-62
2022/04/09 11:58:25;;;;;;;;;;;;;;;;;;4182987;28;1600;-62
2022/04/09 12:00:46;;;;;;;;;;;;;;;;;;4182784;28;2289;-62
2022/04/09 12:03:06;;;;;;;;;;;;;;;;;;4188096;28;1464;-63
2022/04/09 12:05:27;;;;;;;;;;;;;;;;;;4178310;28;1536;-60
2022/04/09 12:07:48;;;;;;;;;;;;;;;;;;4170329;28;1867;-62
2022/04/09 12:10:10;;;;;;;;;;;;;;;;;;4171816;28;895;-62
2022/04/09 12:12:30;;;;;;;;;;;;;;;;;;4171744;28;1982;-62
2022/04/09 12:14:51;;;;;;;;;;;;;;;;;;4174706;28;1505;-62
2022/04/09 12:17:12;;;;;;;;;;;;;;;;;;4186952;28;1367;-63
2022/04/09 12:19:32;;;;;;;;;;;;;;;;;;4186042;28;1459;-63
2022/04/09 12:21:53;;;;;;;;;;;;;;;;;;4186131;28;1239;-62
2022/04/09 12:24:14;;;;;;;;;;;;;;;;;;4184443;28;2332;-63
2022/04/09 12:26:34;;;;;;;;;;;;;;;;;;4186715;28;1535;-62
2022/04/09 12:28:55;;;;;;;;;;;;;;;;;;4186198;28;1579;-62
2022/04/09 12:31:16;;;;;;;;;;;;;;;;;;4188301;28;1906;-63
2022/04/09 12:33:36;;;;;;;;;;;;;;;;;;4186129;28;1321;-63
2022/04/09 12:35:57;;;;;;;;;;;;;;;;;;4188895;28;1305;-62
2022/04/09 12:38:18;;;;;;;;;;;;;;;;;;4188604;28;1286;-62
2022/04/09 12:40:38;;;;;;;;;;;;;;;;;;4171715;28;935;-63
2022/04/09 12:42:59;;;;;;;;;;;;;;;;;;4171224;28;1299;-62
2022/04/09 12:45:20;;;;;;;;;;;;;;;;;;4181291;28;1067;-62
2022/04/09 12:47:40;;;;;;;;;;;;;;;;;;4188659;28;1289;-63
2022/04/09 12:50:04;;;;;;;;;;;;;;;;;;4188468;28;1201;-62
2022/04/09 12:52:24;;;;;;;;;;;;;;;;;;4184630;28;1971;-62
2022/04/09 12:54:45;;;;;;;;;;;;;;;;;;4181572;28;2344;-63
2022/04/09 12:57:06;;;;;;;;;;;;;;;;;;4184748;28;2811;-62
2022/04/09 12:59:27;;;;;;;;;;;;;;;;;;4182038;28;1116;-62
2022/04/09 13:01:48;;;;;;;;;;;;;;;;;;4187973;28;1969;-62
2022/04/09 13:04:10;;;;;;;;;;;;;;;;;;4186148;28;1696;-62
2022/04/09 13:06:31;;;;;;;;;;;;;;;;;;4187463;28;1178;-63
2022/04/09 13:08:51;;;;;;;;;;;;;;;;;;4177626;28;2823;-62
2022/04/09 13:11:14;;;;;;;;;;;;;;;;;;4170460;28;1951;-62
2022/04/09 13:13:35;;;;;;;;;;;;;;;;;;4171563;28;946;-62
2022/04/09 13:15:55;;;;;;;;;;;;;;;;;;4185369;28;1325;-62
2022/04/09 13:18:16;;;;;;;;;;;;;;;;;;4182233;28;3452;-62
2022/04/09 13:20:37;;;;;;;;;;;;;;;;;;4181551;28;1093;-62
2022/04/09 13:22:58;;;;;;;;;;;;;;;;;;4180021;28;2570;-62
2022/04/09 13:25:19;;;;;;;;;;;;;;;;;;4180018;28;1337;-62
2022/04/09 13:27:41;;;;;;;;;;;;;;;;;;4185840;28;1219;-64
2022/04/09 13:30:02;;;;;;;;;;;;;;;;;;4186667;28;1387;-63
2022/04/09 13:32:23;;;;;;;;;;;;;;;;;;4186334;28;1910;-63
2022/04/09 13:34:43;;;;;;;;;;;;;;;;;;4185741;28;1129;-63
2022/04/09 13:37:04;;;;;;;;;;;;;;;;;;4186628;28;978;-63
2022/04/09 13:39:25;;;;;;;;;;;;;;;;;;4187844;28;1109;-63
2022/04/09 13:41:46;;;;;;;;;;;;;;;;;;4187220;28;1004;-64
2022/04/09 13:44:07;;;;;;;;;;;;;;;;;;4181073;28;2577;-62
2022/04/09 13:46:27;;;;;;;;;;;;;;;;;;4171066;28;858;-62
2022/04/09 13:48:48;;;;;;;;;;;;;;;;;;4171074;28;1117;-65
2022/04/09 13:51:09;;;;;;;;;;;;;;;;;;4185887;28;1416;-63
2022/04/09 13:53:30;;;;;;;;;;;;;;;;;;4187505;28;1184;-62
2022/04/09 13:55:50;;;;;;;;;;;;;;;;;;4177375;28;2019;-63
2022/04/09 13:58:11;;;;;;;;;;;;;;;;;;4168850;28;1009;-63
2022/04/09 14:00:32;;;;;;;;;;;;;;;;;;4180692;28;1227;-62
2022/04/09 14:02:53;;;;;;;;;;;;;;;;;;4181422;28;994;-63
2022/04/09 14:05:14;;;;;;;;;;;;;;;;;;4170190;28;946;-63
2022/04/09 14:07:35;;;;;;;;;;;;;;;;;;4178357;28;1699;-62
2022/04/09 14:09:55;;;;;;;;;;;;;;;;;;4178566;28;900;-62
2022/04/09 14:12:16;;;;;;;;;;;;;;;;;;4180052;28;1984;-62
2022/04/09 14:14:36;;;;;;;;;;;;;;;;;;4179447;28;1375;-61
2022/04/09 14:16:58;;;;;;;;;;;;;;;;;;4186873;28;1053;-61
2022/04/09 14:19:19;;;;;;;;;;;;;;;;;;4186630;28;854;-63
2022/04/09 14:21:40;;;;;;;;;;;;;;;;;;4186201;28;1053;-62
2022/04/09 14:24:00;;;;;;;;;;;;;;;;;;4186480;28;1035;-61
2022/04/09 14:26:21;;;;;;;;;;;;;;;;;;4177022;28;1706;-62
2022/04/09 14:28:42;;;;;;;;;;;;;;;;;;4171670;28;1887;-61
2022/04/09 14:31:02;;;;;;;;;;;;;;;;;;4185374;28;1353;-61
2022/04/09 14:33:23;;;;;;;;;;;;;;;;;;4186032;28;1988;-61
2022/04/09 14:35:43;;;;;;;;;;;;;;;;;;4187201;28;796;-62
2022/04/09 14:38:04;;;;;;;;;;;;;;;;;;4186254;28;1020;-61
2022/04/09 14:40:24;;;;;;;;;;;;;;;;;;4186376;28;1721;-61
2022/04/09 14:42:45;;;;;;;;;;;;;;;;;;4184188;28;1678;-61
2022/04/09 14:45:07;;;;;;;;;;;;;;;;;;4186626;28;1107;-62
2022/04/09 14:47:27;;;;;;;;;;;;;;;;;;4186761;28;1807;-62
2022/04/09 14:49:49;;;;;;;;;;;;;;;;;;4169922;28;1687;-62
2022/04/09 14:52:10;;;;;;;;;;;;;;;;;;4170466;28;1910;-62
2022/04/09 14:54:31;;;;;;;;;;;;;;;;;;4173421;28;1548;-62
2022/04/09 14:56:52;;;;;;;;;;;;;;;;;;4171614;28;2471;-61
2022/04/09 14:59:12;;;;;;;;;;;;;;;;;;4170474;28;1311;-62
2022/04/09 15:01:33;;;;;;;;;;;;;;;;;;4170111;28;963;-63
2022/04/09 15:03:54;;;;;;;;;;;;;;;;;;4176841;28;1467;-62
2022/04/09 15:06:15;;;;;;;;;;;;;;;;;;4184778;28;1547;-62
2022/04/09 15:08:39;;;;;;;;;;;;;;;;;;4185474;28;1199;-61
2022/04/09 15:11:01;;;;;;;;;;;;;;;;;;4186438;28;979;-61
2022/04/09 15:13:21;;;;;;;;;;;;;;;;;;4186489;28;1993;-61
2022/04/09 15:15:42;;;;;;;;;;;;;;;;;;4186234;28;1348;-62
2022/04/09 15:18:03;;;;;;;;;;;;;;;;;;4186560;28;1008;-62
2022/04/09 15:20:24;;;;;;;;;;;;;;;;;;4186302;28;1028;-62
2022/04/09 15:22:46;;;;;;;;;;;;;;;;;;4170324;28;954;-62
2022/04/09 15:25:07;;;;;;;;;;;;;;;;;;4170106;28;940;-61
2022/04/09 15:27:27;;;;;;;;;;;;;;;;;;4170148;28;1424;-61
2022/04/09 15:29:48;;;;;;;;;;;;;;;;;;4174661;28;1190;-62
2022/04/09 15:32:10;;;;;;;;;;;;;;;;;;4186416;28;1913;-62
2022/04/09 15:34:31;;;;;;;;;;;;;;;;;;4189472;28;1300;-61
2022/04/09 15:36:51;;;;;;;;;;;;;;;;;;4189586;28;978;-62
2022/04/09 15:39:12;;;;;;;;;;;;;;;;;;4189310;28;1107;-61
2022/04/09 15:41:33;;;;;;;;;;;;;;;;;;4189480;28;1076;-62
2022/04/09 15:43:53;;;;;;;;;;;;;;;;;;4188856;28;1871;-62
2022/04/09 15:46:14;;;;;;;;;;;;;;;;;;4188777;28;1605;-62
2022/04/09 15:48:35;;;;;;;;;;;;;;;;;;4188470;28;1368;-63
2022/04/09 15:50:56;;;;;;;;;;;;;;;;;;4188764;28;1664;-62
2022/04/09 15:53:16;;;;;;;;;;;;;;;;;;4188759;28;1906;-62
2022/04/09 15:55:38;;;;;;;;;;;;;;;;;;4185819;28;1770;-62
2022/04/09 15:57:59;;;;;;;;;;;;;;;;;;4187489;28;1595;-61
2022/04/09 16:00:20;;;;;;;;;;;;;;;;;;4187114;28;1792;-61
2022/04/09 16:02:40;;;;;;;;;;;;;;;;;;4187723;28;1306;-62
2022/04/09 16:05:01;;;;;;;;;;;;;;;;;;4187652;28;1793;-61
2022/04/09 16:07:22;;;;;;;;;;;;;;;;;;4186753;28;1361;-61
2022/04/09 16:09:42;;;;;;;;;;;;;;;;;;4172454;28;1308;-62
2022/04/09 16:12:03;;;;;;;;;;;;;;;;;;4180293;28;1475;-62
2022/04/09 16:14:25;;;;;;;;;;;;;;;;;;4186153;28;1267;-62
2022/04/09 16:16:45;;;;;;;;;;;;;;;;;;4187397;28;1507;-62
2022/04/09 16:19:05;;;;;;;;;;;;;;;;;;4186450;28;1783;-62
2022/04/09 16:21:26;;;;;;;;;;;;;;;;;;4188779;28;1968;-62
2022/04/09 16:23:46;;;;;;;;;;;;;;;;;;4186459;28;1357;-62
2022/04/09 16:26:07;;;;;;;;;;;;;;;;;;4186338;28;1589;-62